Time;durP1;ratioP1;P1;durP2;ratioP2;P2;SDS_P1;SDS_P2;PMS_P1;PMS_P2;Temp;Humidity;BMP_temperature;BMP_pressure;BME280_temperature;BME280_humidity;BME280_pressure;Samples;Min_cycle;Max_cycle;Signal;HPM_P1;HPM_P2
2021/11/01 00:01:01;;;;;;;55.20;33.60;;;;;;;7.39;74.79;100213.16;1714343;81;27479;-80
2021/11/01 00:03:28;;;;;;;55.67;32.38;;;;;;;7.37;74.88;100210.33;1699074;81;25898;-79
2021/11/01 00:05:56;;;;;;;57.03;32.23;;;;;;;7.35;75.01;100213.19;1747628;81;26450;-80
2021/11/01 00:08:23;;;;;;;53.65;29.52;;;;;;;7.31;75.08;100213.70;1743341;81;25822;-79
2021/11/01 00:10:50;;;;;;;49.38;29.55;;;;;;;7.31;75.19;100211.88;1731673;81;25884;-80
2021/11/01 00:13:17;;;;;;;58.08;30.48;;;;;;;7.30;75.23;100210.20;1720125;82;27482;-81
2021/11/01 00:15:44;;;;;;;49.95;28.92;;;;;;;7.28;75.16;100208.22;1738493;81;25854;-80
2021/11/01 00:18:11;;;;;;;45.10;27.05;;;;;;;7.27;75.15;100213.20;1700720;82;25904;-80
2021/11/01 00:20:38;;;;;;;46.30;28.15;;;;;;;7.25;75.27;100212.55;1728584;80;25842;-80
2021/11/01 00:23:05;;;;;;;46.53;28.32;;;;;;;7.26;75.13;100206.23;1715082;79;25902;-80
2021/11/01 00:25:32;;;;;;;47.40;27.40;;;;;;;7.28;75.11;100191.40;1715960;81;27542;-80
2021/11/01 00:28:00;;;;;;;48.08;28.50;;;;;;;7.27;75.12;100191.89;1719667;79;25857;-79
2021/11/01 00:30:27;;;;;;;48.80;28.52;;;;;;;7.26;75.07;100190.25;1772609;79;26495;-80
2021/11/01 00:32:55;;;;;;;44.35;27.95;;;;;;;7.24;75.05;100190.93;1700332;80;25861;-80
2021/11/01 00:35:22;;;;;;;44.30;27.62;;;;;;;7.21;75.12;100190.42;1781073;79;25878;-80
2021/11/01 00:37:49;;;;;;;46.15;28.83;;;;;;;7.17;75.20;100189.95;1714672;81;27368;-80
2021/11/01 00:40:16;;;;;;;45.95;27.55;;;;;;;7.10;75.29;100184.19;1754401;79;25758;-80
2021/11/01 00:42:43;;;;;;;46.30;28.42;;;;;;;7.03;75.33;100183.22;1699235;80;25992;-80
2021/11/01 00:45:10;;;;;;;46.83;28.95;;;;;;;7.02;75.50;100178.38;1768606;79;26587;-80
2021/11/01 00:47:37;;;;;;;49.15;28.15;;;;;;;7.01;75.54;100174.08;1732688;81;26114;-79
2021/11/01 00:50:06;;;;;;;46.20;28.27;;;;;;;6.97;75.56;100170.91;1738676;81;27582;-80
2021/11/01 00:52:33;;;;;;;45.15;28.50;;;;;;;6.97;75.62;100169.58;1741597;81;26053;-79
2021/11/01 00:55:03;;;;;;;46.13;27.67;;;;;;;6.93;75.54;100170.09;1741711;81;26504;-80
2021/11/01 00:57:31;;;;;;;45.55;27.55;;;;;;;6.89;75.69;100161.64;1704672;81;26586;-80
2021/11/01 00:59:59;;;;;;;50.67;29.65;;;;;;;6.89;75.65;100160.80;1710467;81;25827;-80
2021/11/01 01:02:34;;;;;;;49.90;28.85;;;;;;;6.89;75.73;100169.63;1720149;82;28514;-79
2021/11/01 01:05:06;;;;;;;50.40;29.32;;;;;;;6.85;75.70;100165.66;1734669;81;26530;-80
2021/11/01 01:07:33;;;;;;;47.13;28.67;;;;;;;6.81;75.77;100156.36;1719040;81;25864;-79
2021/11/01 01:10:01;;;;;;;44.93;26.82;;;;;;;6.77;75.85;100160.38;1706089;81;26528;-80
2021/11/01 01:12:28;;;;;;;47.60;27.07;;;;;;;6.76;75.76;100154.71;1696572;83;25928;-80
2021/11/01 01:15:02;;;;;;;43.13;28.17;;;;;;;6.77;75.77;100151.55;1742945;80;27578;-79
2021/11/01 01:17:28;;;;;;;49.48;27.90;;;;;;;6.76;75.89;100157.87;1708450;81;25764;-80
2021/11/01 01:20:04;;;;;;;49.48;28.20;;;;;;;6.73;75.82;100157.73;1725302;81;25392;-80
2021/11/01 01:22:29;;;;;;;43.65;27.45;;;;;;;6.73;75.96;100152.91;1742738;81;25912;-79
2021/11/01 01:24:54;;;;;;;53.45;28.87;;;;;;;6.69;75.87;100152.40;1667626;81;25871;-79
2021/11/01 01:27:21;;;;;;;45.33;26.02;;;;;;;6.65;75.89;100151.62;1714404;81;28297;-80
2021/11/01 01:29:50;;;;;;;39.15;25.70;;;;;;;6.63;76.01;100146.44;1719870;81;25837;-80
2021/11/01 01:32:17;;;;;;;44.98;26.75;;;;;;;6.60;76.02;100143.31;1723647;81;25812;-80
2021/11/01 01:34:44;;;;;;;44.75;26.50;;;;;;;6.59;76.17;100138.97;1683454;81;26301;-79
2021/11/01 01:37:12;;;;;;;45.33;28.00;;;;;;;6.57;76.23;100137.83;1704729;81;25370;-79
2021/11/01 01:39:39;;;;;;;45.10;26.77;;;;;;;6.56;76.18;100130.86;1724312;81;28180;-80
2021/11/01 01:42:06;;;;;;;46.55;28.35;;;;;;;6.56;76.18;100130.02;1739554;81;25750;-79
2021/11/01 01:44:33;;;;;;;46.75;27.62;;;;;;;6.53;76.13;100127.20;1686978;81;25819;-79
2021/11/01 01:47:01;;;;;;;44.13;27.95;;;;;;;6.52;76.12;100128.71;1714300;81;26558;-80
2021/11/01 01:49:28;;;;;;;49.73;28.30;;;;;;;6.53;76.15;100122.37;1721685;81;25857;-80
2021/11/01 01:51:55;;;;;;;45.08;27.87;;;;;;;6.52;76.24;100122.06;1744016;81;27530;-79
2021/11/01 01:54:22;;;;;;;41.02;26.40;;;;;;;6.48;76.16;100121.55;1667144;81;26220;-80
2021/11/01 01:56:49;;;;;;;44.55;26.37;;;;;;;6.47;76.23;100115.08;1717836;81;25393;-80
2021/11/01 01:59:18;;;;;;;43.08;27.02;;;;;;;6.47;76.21;100111.09;1725726;81;26318;-79
2021/11/01 02:01:47;;;;;;;46.08;27.82;;;;;;;6.45;76.17;100110.44;1728976;81;26187;-80
2021/11/01 02:04:18;;;;;;;44.98;27.48;;;;;;;6.43;76.19;100108.45;1709635;81;28281;-80
2021/11/01 02:07:13;;;;;;;;;;;;;;;6.39;76.27;100103.98;1743881;81;25789;-80
2021/11/01 02:10:01;;;;;;;46.68;26.68;;;;;;;6.38;76.41;100106.30;1741610;81;25864;-79
2021/11/01 02:12:48;;;;;;;47.03;28.00;;;;;;;6.32;76.32;100097.69;1741743;81;26413;-79
2021/11/01 02:15:23;;;;;;;46.75;27.55;;;;;;;6.28;76.42;100099.03;1720649;82;25805;-79
2021/11/01 02:17:54;;;;;;;48.30;27.37;;;;;;;6.25;76.57;100091.38;1745933;81;27446;-79
2021/11/01 02:20:44;;;;;;;;;;;;;;;6.24;76.59;100087.89;1754221;81;25866;-80
2021/11/01 02:23:25;;;;;;;43.02;25.23;;;;;;;6.21;76.51;100082.93;1724634;80;26491;-80
2021/11/01 02:25:56;;;;;;;44.53;26.80;;;;;;;6.18;76.50;100085.08;1746037;81;25904;-80
2021/11/01 02:28:26;;;;;;;;;;;;;;;6.14;76.53;100084.61;1733777;81;25770;-80
2021/11/01 02:30:54;;;;;;;45.73;27.60;;;;;;;6.13;76.68;100078.97;1724048;81;27432;-80
2021/11/01 02:33:23;;;;;;;45.67;27.77;;;;;;;6.11;76.65;100084.13;1725078;81;26085;-79
2021/11/01 02:35:51;;;;;;;44.03;28.57;;;;;;;6.09;76.66;100081.62;1738625;81;25997;-80
2021/11/01 02:38:23;;;;;;;47.88;27.45;;;;;;;6.08;76.57;100076.48;1728465;81;26521;-80
2021/11/01 02:40:51;;;;;;;47.45;27.90;;;;;;;6.06;76.51;100066.02;1727450;81;25784;-80
2021/11/01 02:43:18;;;;;;;43.38;26.93;;;;;;;6.05;76.55;100073.66;1700174;80;27655;-79
2021/11/01 02:45:45;;;;;;;44.23;27.17;;;;;;;6.01;76.54;100072.34;1722656;81;26514;-80
2021/11/01 02:48:12;;;;;;;48.87;30.60;;;;;;;6.00;76.67;100068.04;1726450;81;25787;-79
2021/11/01 02:50:40;;;;;;;58.52;35.85;;;;;;;5.95;76.61;100065.55;1722603;81;26082;-79
2021/11/01 02:53:07;;;;;;;57.08;31.77;;;;;;;5.91;76.56;100060.24;1682553;81;25850;-79
2021/11/01 02:55:35;;;;;;;47.30;29.05;;;;;;;5.88;76.82;100050.77;1712387;81;27501;-80
2021/11/01 02:58:03;;;;;;;53.48;32.38;;;;;;;5.86;76.84;100051.97;1747140;81;25728;-80
2021/11/01 03:00:31;;;;;;;65.80;39.05;;;;;;;5.84;76.79;100048.62;1682646;81;26092;-79
2021/11/01 03:02:59;;;;;;;73.40;38.50;;;;;;;5.83;76.89;100046.95;1686674;81;26216;-79
2021/11/01 03:05:29;;;;;;;63.25;33.98;;;;;;;5.78;76.87;100044.80;1740865;81;25773;-80
2021/11/01 03:07:58;;;;;;;84.92;42.25;;;;;;;5.77;77.09;100041.83;1739654;81;27579;-80
2021/11/01 03:10:26;;;;;;;58.13;36.30;;;;;;;5.74;77.30;100035.50;1690718;81;25911;-80
2021/11/01 03:12:55;;;;;;;62.43;31.60;;;;;;;5.72;77.36;100041.98;1715375;83;25895;-80
2021/11/01 03:15:24;;;;;;;54.03;29.32;;;;;;;5.69;77.44;100041.01;1742934;81;26255;-80
2021/11/01 03:18:01;;;;;;;48.80;29.77;;;;;;;5.68;77.47;100040.66;1738541;81;25945;-80
2021/11/01 03:20:44;;;;;;;54.67;30.00;;;;;;;5.65;77.37;100035.67;1720070;81;28378;-80
2021/11/01 03:23:17;;;;;;;63.73;33.98;;;;;;;5.66;77.59;100037.34;1730595;81;26681;-79
2021/11/01 03:26:04;;;;;;;67.17;35.25;;;;;;;5.63;77.65;100037.19;1742720;81;25802;-80
2021/11/01 03:28:33;;;;;;;64.25;33.85;;;;;;;5.60;77.66;100032.22;1742694;81;26504;-80
2021/11/01 03:31:04;;;;;;;65.50;38.38;;;;;;;5.58;77.75;100031.53;1683410;81;25829;-79
2021/11/01 03:33:38;;;;;;;66.47;34.73;;;;;;;5.58;77.88;100030.73;1724878;81;27607;-80
2021/11/01 03:36:03;;;;;;;54.13;31.75;;;;;;;5.56;77.94;100030.07;1739183;80;26141;-80
2021/11/01 03:38:31;;;;;;;54.35;32.98;;;;;;;5.56;78.05;100028.22;1741488;81;25805;-80
2021/11/01 03:40:59;;;;;;;49.48;30.37;;;;;;;5.54;78.16;100026.23;1681720;81;26335;-80
2021/11/01 03:43:29;;;;;;;51.40;31.85;;;;;;;5.50;78.15;100026.24;1699360;81;25892;-80
2021/11/01 03:45:59;;;;;;;51.37;29.92;;;;;;;5.48;78.24;100023.77;1740818;81;28411;-79
2021/11/01 03:48:30;;;;;;;47.08;29.82;;;;;;;5.46;78.25;100019.12;1742669;81;25807;-80
2021/11/01 03:51:08;;;;;;;48.02;28.47;;;;;;;5.43;78.29;100024.75;1691730;81;25888;-79
2021/11/01 03:53:31;;;;;;;50.03;30.52;;;;;;;5.39;78.45;100022.11;1741745;81;25935;-80
2021/11/01 03:55:58;;;;;;;46.33;28.57;;;;;;;5.39;78.63;100025.25;1742080;81;25970;-80
2021/11/01 03:58:26;;;;;;;46.80;27.65;;;;;;;5.36;78.51;100021.13;1700420;81;56906;-80
2021/11/01 04:00:54;;;;;;;53.70;30.65;;;;;;;5.37;78.72;100013.48;1690399;81;25803;-79
2021/11/01 04:03:26;;;;;;;48.40;27.95;;;;;;;5.37;78.74;100012.64;1706260;81;25875;-80
2021/11/01 04:06:02;;;;;;;49.42;27.67;;;;;;;5.35;78.74;100014.14;1665466;82;25850;-80
2021/11/01 04:08:23;;;;;;;45.20;28.60;;;;;;;5.34;78.71;100017.81;1688771;82;25848;-79
2021/11/01 04:10:50;;;;;;;45.52;27.13;;;;;;;5.32;78.74;100014.98;1689422;82;27568;-79
2021/11/01 04:13:19;;;;;;;54.20;30.02;;;;;;;5.33;78.78;100008.66;1694122;82;25413;-79
2021/11/01 04:15:52;;;;;;;46.75;28.42;;;;;;;5.31;78.64;100004.02;1685125;82;26607;-79
2021/11/01 04:18:24;;;;;;;50.28;30.12;;;;;;;5.29;78.64;100006.85;1689361;82;25917;-79
2021/11/01 04:20:52;;;;;;;51.88;28.92;;;;;;;5.28;78.58;100014.47;1666815;82;26634;-79
2021/11/01 04:23:20;;;;;;;48.40;27.98;;;;;;;5.27;78.66;100015.48;1669671;82;28196;-79
2021/11/01 04:25:47;;;;;;;49.30;29.35;;;;;;;5.28;78.67;100006.51;1688914;82;25917;-79
2021/11/01 04:28:14;;;;;;;42.58;27.42;;;;;;;5.27;78.57;100002.70;1711810;82;25830;-80
2021/11/01 04:30:44;;;;;;;44.70;27.50;;;;;;;5.23;78.41;99999.56;1667865;84;26558;-80
2021/11/01 04:33:14;;;;;;;45.28;27.02;;;;;;;5.23;78.56;99999.56;1696849;83;25887;-79
2021/11/01 04:35:41;;;;;;;52.58;28.42;;;;;;;5.22;78.48;99997.89;1673824;84;27559;-80
2021/11/01 04:38:37;;;;;;;44.45;26.40;;;;;;;5.22;78.50;99992.58;1699514;84;25800;-79
2021/11/01 04:54:19;;;;;;;50.38;29.52;;;;;;;5.09;78.55;99978.17;1643475;84;26366;-80
2021/11/01 04:56:47;;;;;;;50.25;29.45;;;;;;;5.05;78.59;99978.98;1674013;84;25906;-80
2021/11/01 04:59:14;;;;;;;53.05;28.55;;;;;;;5.03;78.61;99979.65;1673855;84;25802;-80
2021/11/01 05:01:46;;;;;;;51.30;28.60;;;;;;;4.99;78.67;99974.34;1700490;84;27610;-79
2021/11/01 05:04:14;;;;;;;54.08;28.73;;;;;;;4.97;78.79;99973.68;1645495;82;25841;-79
2021/11/01 05:06:59;;;;;;;49.63;28.20;;;;;;;4.93;78.96;99975.02;1689242;82;25305;-80
2021/11/01 05:09:27;;;;;;;47.23;28.17;;;;;;;4.92;79.03;99977.32;1729115;82;25666;-79
2021/11/01 05:14:27;;;;;;;49.67;29.30;;;;;;;4.91;79.23;99973.52;1652827;82;28150;-80
2021/11/01 05:17:09;;;;;;;48.38;28.65;;;;;;;4.88;79.26;99974.67;1688357;82;26338;-79
2021/11/01 05:19:30;;;;;;;47.88;29.52;;;;;;;4.90;79.35;99975.86;1700230;82;26575;-80
2021/11/01 05:22:05;;;;;;;51.02;28.87;;;;;;;4.90;79.34;99974.00;1729296;82;25896;-79
2021/11/01 05:24:43;;;;;;;49.65;30.15;;;;;;;4.88;79.28;99972.02;1654671;82;26042;-79
2021/11/01 05:29:53;;;;;;;53.40;30.55;;;;;;;4.83;79.40;99965.56;1728077;82;25324;-79
2021/11/01 05:32:27;;;;;;;56.50;30.65;;;;;;;4.80;79.48;99966.72;1726269;83;26214;-80
2021/11/01 05:34:52;;;;;;;52.27;32.15;;;;;;;4.78;79.49;99974.02;1668690;83;25771;-80
2021/11/01 05:37:20;;;;;;;47.10;29.48;;;;;;;4.79;79.59;99966.36;1700531;81;25803;-79
2021/11/01 05:39:49;;;;;;;62.00;33.28;;;;;;;4.79;79.55;99968.22;1712565;82;27573;-79
2021/11/01 05:42:16;;;;;;;67.72;33.33;;;;;;;4.78;79.54;99963.89;1729475;82;26533;-80
2021/11/01 05:44:43;;;;;;;52.15;29.12;;;;;;;4.77;79.60;99966.22;1665333;82;25873;-80
2021/11/01 05:47:11;;;;;;;52.13;31.33;;;;;;;4.78;79.69;99966.55;1712705;82;25858;-79
2021/11/01 05:49:39;;;;;;;63.05;33.78;;;;;;;4.76;79.65;99965.88;1687292;82;25847;-79
2021/11/01 05:52:16;;;;;;;62.58;33.83;;;;;;;4.74;79.76;99959.42;1740891;81;27457;-80
2021/11/01 05:54:39;;;;;;;55.63;30.80;;;;;;;4.73;79.82;99960.92;1711780;81;25832;-80
2021/11/01 05:57:21;;;;;;;55.95;33.05;;;;;;;4.71;79.93;99957.08;1733993;81;25876;-79
2021/11/01 06:00:03;;;;;;;66.50;35.48;;;;;;;4.68;80.04;99952.12;1726124;81;25850;-79
2021/11/01 06:02:34;;;;;;;65.25;35.30;;;;;;;4.67;80.23;99955.27;1743783;81;25931;-80
2021/11/01 06:05:12;;;;;;;56.50;32.88;;;;;;;4.64;80.37;99956.11;1684018;84;27416;-79
2021/11/01 06:07:44;;;;;;;59.83;33.13;;;;;;;4.62;80.41;99954.92;1700519;82;26682;-80
2021/11/01 06:10:10;;;;;;;60.52;33.38;;;;;;;4.64;80.60;99960.08;1707855;82;25755;-79
2021/11/01 06:15:23;;;;;;;56.23;34.58;;;;;;;4.63;80.78;99957.08;1677634;82;25889;-80
2021/11/01 06:17:49;;;;;;;62.85;32.98;;;;;;;4.61;80.93;99951.95;1697815;82;28321;-79
2021/11/01 06:20:18;;;;;;;58.70;34.50;;;;;;;4.62;81.05;99951.43;1688331;82;25932;-79
2021/11/01 06:22:45;;;;;;;58.00;32.53;;;;;;;4.60;81.17;99952.93;1703975;82;26456;-79
2021/11/01 06:25:15;;;;;;;58.90;33.13;;;;;;;4.60;81.24;99956.07;1656432;83;26606;-80
2021/11/01 06:27:42;;;;;;;57.53;31.85;;;;;;;4.64;81.32;99960.08;1683537;83;25985;-80
2021/11/01 06:30:24;;;;;;;54.88;31.77;;;;;;;4.66;81.37;99959.42;1694406;82;28118;-80
2021/11/01 06:41:25;;;;;;;59.63;33.50;;;;;;;4.77;81.73;99963.57;1717008;83;25699;-80
2021/11/01 06:51:32;;;;;;;47.43;29.52;;;;;;;4.88;82.46;99958.75;1700443;82;25819;-80
2021/11/01 06:56:58;;;;;;;47.05;27.80;;;;;;;4.99;82.44;99957.09;1652310;82;27606;-79
2021/11/01 07:15:45;;;;;;;44.42;27.73;;;;;;;5.39;82.52;99963.67;1712331;83;25892;-80
2021/11/01 07:18:17;;;;;;;51.40;28.42;;;;;;;5.45;82.40;99959.02;1677437;84;26257;-80
2021/11/01 08:22:18;;;;;;;42.60;26.90;;;;;;;7.17;80.43;99936.93;1685718;84;25812;-84
2021/11/01 08:24:41;;;;;;;46.30;25.90;;;;;;;7.27;80.33;99936.16;1624514;84;25890;-84
2021/11/01 08:26:35;;;;;;;40.70;23.42;;;;;;;7.37;80.08;99930.08;1631247;84;26070;-85
2021/11/01 08:29:05;;;;;;;48.30;28.07;;;;;;;7.44;79.82;99935.52;1678604;84;25453;-83
2021/11/01 08:34:50;;;;;;;49.30;28.17;;;;;;;7.59;79.39;99933.16;1619998;85;26306;-85
2021/11/01 08:37:09;;;;;;;45.17;27.65;;;;;;;7.67;79.46;99929.09;1647712;84;25910;-85
2021/11/01 08:39:59;;;;;;;40.17;26.00;;;;;;;7.75;79.09;99920.98;1661188;84;25755;-84
2021/11/01 08:48:40;;;;;;;41.53;24.40;;;;;;;8.00;78.62;99909.50;1683668;83;25950;-84
2021/11/01 09:04:40;;;;;;;38.08;22.98;;;;;;;8.55;77.77;99904.92;1670650;82;26139;-85
2021/11/01 09:13:05;;;;;;;35.23;24.02;;;;;;;8.80;77.03;99896.83;1670689;83;27499;-85
2021/11/01 09:25:54;;;;;;;34.92;22.55;;;;;;;9.21;76.24;99885.76;1655691;83;27638;-85
2021/11/01 09:28:28;;;;;;;34.55;21.97;;;;;;;9.28;75.79;99882.59;1680235;84;25388;-84
2021/11/01 09:42:00;;;;;;;30.45;20.97;;;;;;;9.65;74.67;99873.36;1706878;83;25293;-85
2021/11/01 09:44:31;;;;;;;32.42;20.72;;;;;;;9.73;74.36;99870.50;1654908;83;26019;-85
2021/11/01 09:47:01;;;;;;;32.80;20.60;;;;;;;9.81;74.60;99873.55;1691227;83;27314;-85
2021/11/01 09:49:30;;;;;;;32.17;20.68;;;;;;;9.87;74.49;99869.56;1711832;82;25818;-85
2021/11/01 09:52:02;;;;;;;34.40;21.02;;;;;;;9.95;74.28;99872.05;1747074;82;27528;-84
2021/11/01 09:54:31;;;;;;;31.50;19.80;;;;;;;10.02;74.03;99859.53;1694888;82;26658;-84
2021/11/01 09:57:04;;;;;;;34.85;21.70;;;;;;;10.11;73.83;99859.38;1707628;82;25925;-85
2021/11/01 09:59:41;;;;;;;29.95;20.50;;;;;;;10.18;73.40;99861.56;1659981;84;26208;-85
2021/11/01 10:02:12;;;;;;;29.30;18.90;;;;;;;10.24;73.47;99856.23;1684008;84;25837;-85
2021/11/01 10:04:44;;;;;;;;;;;;;;;10.32;73.50;99853.36;1670498;82;28396;-84
2021/11/01 10:07:30;;;;;;;27.87;18.73;;;;;;;10.40;73.42;99849.65;1692448;83;25868;-85
2021/11/01 10:10:14;;;;;;;31.07;20.97;;;;;;;10.46;73.35;99847.48;1692477;82;25928;-84
2021/11/01 10:12:45;;;;;;;29.85;19.55;;;;;;;10.55;72.73;99844.42;1709267;82;26119;-86
2021/11/01 10:18:10;;;;;;;28.27;18.35;;;;;;;10.71;72.25;99827.94;1678679;84;27618;-85
2021/11/01 10:20:51;;;;;;;27.17;17.87;;;;;;;10.77;72.11;99828.98;1674944;84;25874;-84
2021/11/01 10:23:28;;;;;;;29.35;19.67;;;;;;;10.84;71.05;99827.14;1646507;85;25968;-84
2021/11/01 10:26:16;;;;;;;37.08;21.90;;;;;;;10.92;71.46;99825.58;1629451;86;25800;-84
2021/11/01 10:28:49;;;;;;;29.85;20.12;;;;;;;10.99;71.12;99818.87;1661011;82;25863;-84
2021/11/01 10:31:23;;;;;;;26.60;19.30;;;;;;;11.06;71.31;99819.16;1708116;82;27092;-84
2021/11/01 10:34:07;;;;;;;28.70;18.37;;;;;;;11.13;70.64;99817.81;1684868;84;25800;-84
2021/11/01 10:36:39;;;;;;;29.85;19.30;;;;;;;11.19;69.85;99819.14;1711424;81;25847;-84
2021/11/01 10:39:15;;;;;;;27.15;17.92;;;;;;;11.23;70.15;99817.68;1648899;84;26000;-84
2021/11/01 10:41:59;;;;;;;29.20;19.62;;;;;;;11.28;70.35;99820.56;1714514;83;25819;-85
2021/11/01 11:12:11;;;;;;;26.35;17.90;;;;;;;11.81;67.99;99795.73;1684208;82;27670;-84
2021/11/01 11:25:15;;;;;;;26.80;16.95;;;;;;;12.04;67.53;99791.20;1691444;84;28314;-84
2021/11/01 11:30:51;;;;;;;26.12;17.87;;;;;;;12.11;67.55;99788.76;1656147;84;26015;-84
2021/11/01 11:47:55;;;;;;;24.70;16.25;;;;;;;12.44;66.83;99774.28;1690082;84;25888;-85
2021/11/01 11:50:25;;;;;;;26.37;17.75;;;;;;;12.49;66.56;99777.14;1664151;85;25915;-85
2021/11/01 11:52:52;;;;;;;26.10;16.37;;;;;;;12.52;66.12;99764.09;1623708;85;27553;-84
2021/11/01 11:55:26;;;;;;;23.30;15.58;;;;;;;12.56;65.95;99767.14;1685959;83;26624;-85
2021/11/01 11:58:02;;;;;;;22.85;15.32;;;;;;;12.59;65.65;99767.55;1666718;84;25342;-85
2021/11/01 12:00:33;;;;;;;25.00;16.45;;;;;;;12.64;65.88;99756.95;1682692;84;25389;-83
2021/11/01 12:03:14;;;;;;;23.02;16.15;;;;;;;12.66;65.59;99753.52;1659346;84;25797;-84
2021/11/01 12:05:52;;;;;;;21.35;15.05;;;;;;;12.71;65.56;99755.55;1667800;85;27425;-85
2021/11/01 12:08:31;;;;;;;22.20;15.05;;;;;;;12.76;65.71;99753.86;1695755;82;25776;-84
2021/11/01 12:19:15;;;;;;;22.95;14.13;;;;;;;12.90;65.41;99751.33;1689282;84;27466;-85
2021/11/01 12:21:46;;;;;;;27.55;14.98;;;;;;;12.95;65.17;99752.01;1657381;84;25853;-84
2021/11/01 12:24:22;;;;;;;25.55;16.23;;;;;;;12.99;65.09;99746.48;1621639;87;25987;-85
2021/11/01 12:27:05;;;;;;;20.90;14.90;;;;;;;13.01;64.55;99745.73;1697209;84;26102;-84
2021/11/01 12:29:33;;;;;;;19.75;14.07;;;;;;;13.05;64.54;99745.11;1674921;84;26151;-84
2021/11/01 12:32:08;;;;;;;20.68;13.28;;;;;;;13.09;64.44;99742.78;1616769;87;27661;-84
2021/11/01 12:34:44;;;;;;;19.85;13.83;;;;;;;13.12;63.95;99739.66;1641042;84;25348;-85
2021/11/01 12:37:17;;;;;;;22.55;14.68;;;;;;;13.15;63.65;99733.30;1686472;82;25896;-84
2021/11/01 12:39:48;;;;;;;19.67;13.62;;;;;;;13.19;63.45;99735.55;1669340;85;25785;-84
2021/11/01 12:42:38;;;;;;;18.87;12.82;;;;;;;13.25;63.41;99738.68;1628813;85;25800;-83
2021/11/01 12:58:38;;;;;;;16.32;11.90;;;;;;;13.42;62.79;99743.23;1689721;82;28198;-82
2021/11/01 13:01:13;;;;;;;16.50;12.58;;;;;;;13.46;62.35;99742.25;1689661;84;25960;-83
2021/11/01 13:03:48;;;;;;;17.05;12.35;;;;;;;13.49;61.62;99735.91;1644856;85;25920;-83
2021/11/01 13:06:26;;;;;;;20.60;13.50;;;;;;;13.51;61.98;99735.16;1635749;83;25976;-83
2021/11/01 13:08:54;;;;;;;18.80;13.10;;;;;;;13.52;61.84;99734.61;1673581;83;25888;-83
2021/11/01 13:19:25;;;;;;;19.20;12.45;;;;;;;13.58;62.00;99733.73;1669720;84;25694;-82
2021/11/01 13:22:30;;;;;;;22.32;13.70;;;;;;;13.58;61.76;99737.22;1705395;83;25918;-83
2021/11/01 13:39:00;;;;;;;25.17;15.60;;;;;;;13.52;61.55;99730.58;1689501;84;27712;-83
2021/11/01 13:41:28;;;;;;;23.83;15.38;;;;;;;13.51;61.44;99729.78;1690202;84;26632;-84
2021/11/01 13:44:24;;;;;;;24.02;15.28;;;;;;;13.51;61.37;99731.64;1703143;83;26034;-82
2021/11/01 13:47:01;;;;;;;21.07;14.83;;;;;;;13.49;61.31;99727.02;1668818;84;26177;-83
2021/11/01 13:49:31;;;;;;;19.90;14.63;;;;;;;13.45;61.36;99727.97;1672532;84;26511;-83
2021/11/01 13:52:39;;;;;;;17.82;13.15;;;;;;;13.45;61.19;99728.52;1692101;82;27533;-84
2021/11/01 13:58:17;;;;;;;20.90;14.07;;;;;;;13.40;60.98;99729.19;1639840;85;25828;-82
2021/11/01 14:01:31;;;;;;;19.37;13.30;;;;;;;13.40;61.21;99725.67;1656249;84;26008;-83
2021/11/01 14:11:00;;;;;;;19.00;13.08;;;;;;;13.29;60.72;99725.91;1666667;83;25930;-82
2021/11/01 14:11:40;;;;;;;20.02;13.98;;;;;;;13.26;60.99;99716.93;1667586;83;26124;-83
2021/11/01 14:14:28;;;;;;;18.75;13.20;;;;;;;13.24;61.07;99723.06;1696468;83;25803;-83
2021/11/01 14:16:57;;;;;;;17.23;13.58;;;;;;;13.20;61.24;99720.52;1662565;84;25785;-83
2021/11/01 15:00:18;;;;;;;27.90;19.30;;;;;;;12.47;62.40;99738.94;1700203;84;27610;-82
2021/11/01 15:15:29;;;;;;;25.55;18.48;;;;;;;12.16;62.74;99734.42;1561632;89;26190;-83
2021/11/01 15:18:10;;;;;;;26.87;16.93;;;;;;;12.09;62.80;99737.66;1661639;82;25772;-83
2021/11/01 15:23:22;;;;;;;23.98;16.07;;;;;;;11.96;62.83;99737.23;1660207;82;25832;-82
2021/11/01 15:42:16;;;;;;;35.28;23.52;;;;;;;11.63;63.11;99742.75;1696679;83;26651;-83
2021/11/01 16:17:41;;;;;;;44.93;28.32;;;;;;;11.00;64.63;99746.81;1699599;82;25299;-83
2021/11/01 16:19:54;;;;;;;41.10;27.07;;;;;;;10.92;64.76;99742.52;1701351;82;27561;-83
2021/11/01 16:22:23;;;;;;;49.77;30.90;;;;;;;10.88;64.92;99747.45;1668926;83;25998;-83
2021/11/01 16:24:50;;;;;;;81.70;48.52;;;;;;;10.85;65.04;99743.03;1689758;83;25897;-82
2021/11/01 16:27:20;;;;;;;84.00;51.30;;;;;;;10.76;65.10;99754.48;1660797;83;26092;-83
2021/11/01 16:32:42;;;;;;;84.62;45.15;;;;;;;10.63;65.36;99752.33;1689589;83;27585;-83
2021/11/01 16:35:07;;;;;;;144.87;68.35;;;;;;;10.58;65.55;99750.81;1683504;84;25795;-82
2021/11/01 16:37:39;;;;;;;;;;;;;;;10.53;65.64;99744.73;1673114;83;25836;-82
2021/11/01 16:40:13;;;;;;;143.13;69.12;;;;;;;10.47;65.80;99752.27;1702844;83;25731;-82
2021/11/01 16:42:43;;;;;;;78.72;43.60;;;;;;;10.41;65.84;99750.41;1668759;83;25830;-83
2021/11/01 16:45:24;;;;;;;67.55;34.63;;;;;;;10.39;65.90;99752.44;1672282;83;27572;-83
2021/11/01 16:47:47;;;;;;;61.55;32.98;;;;;;;10.36;66.06;99748.02;1691499;83;25364;-84
2021/11/01 16:50:16;;;;;;;66.10;33.75;;;;;;;10.32;66.17;99752.15;1689632;84;25859;-82
2021/11/01 16:52:46;;;;;;;65.92;31.48;;;;;;;10.30;66.32;99748.85;1666064;83;26240;-83
2021/11/01 16:55:18;;;;;;;63.47;31.00;;;;;;;10.26;66.34;99746.28;1686250;83;25828;-83
2021/11/01 16:57:47;;;;;;;63.50;33.97;;;;;;;10.25;66.44;99747.30;1712448;83;27752;-83
2021/11/01 17:00:26;;;;;;;65.10;35.55;;;;;;;10.22;66.51;99743.71;1719560;83;25972;-83
2021/11/01 17:03:10;;;;;;;83.03;40.05;;;;;;;10.16;66.55;99741.31;1667150;83;25872;-82
2021/11/01 17:22:20;;;;;;;47.90;27.60;;;;;;;9.88;67.49;99744.67;1695043;84;25861;-83
2021/11/01 17:24:48;;;;;;;49.40;28.92;;;;;;;9.81;67.60;99746.50;1664530;83;27181;-83
2021/11/01 17:30:46;;;;;;;47.00;27.85;;;;;;;9.76;67.87;99751.11;1698540;83;25933;-82
2021/11/01 18:53:16;;;;;;;59.63;38.47;;;;;;;8.92;70.30;99730.19;1683039;83;25863;-82
2021/11/01 18:55:54;;;;;;;58.42;36.93;;;;;;;8.90;70.31;99725.56;1673842;83;25719;-82
2021/11/01 18:58:27;;;;;;;57.33;34.33;;;;;;;8.89;70.31;99725.27;1702270;83;25832;-83
2021/11/01 19:00:58;;;;;;;57.53;36.17;;;;;;;8.88;70.43;99721.76;1672782;83;28246;-82
2021/11/01 19:03:27;;;;;;;55.33;34.35;;;;;;;8.88;70.44;99723.59;1667246;83;26448;-83
2021/11/01 20:04:24;;;;;;;49.63;32.63;;;;;;;8.10;72.75;99715.84;1669600;84;25739;-82
2021/11/01 20:07:10;;;;;;;47.13;29.18;;;;;;;8.08;72.82;99720.54;1693357;84;25914;-83
2021/11/01 21:24:29;;;;;;;46.48;29.23;;;;;;;8.01;73.04;99720.98;1654278;85;26178;-83
2021/11/01 21:26:59;;;;;;;63.52;32.42;;;;;;;7.40;74.93;99687.25;1647403;85;25863;-83
2021/11/01 21:29:28;;;;;;;75.37;36.03;;;;;;;7.40;75.01;99692.58;1648240;85;26301;-82
2021/11/01 21:31:56;;;;;;;70.20;35.85;;;;;;;7.39;74.96;99692.28;1660713;85;27471;-82
2021/11/01 21:34:42;;;;;;;62.15;34.18;;;;;;;7.37;74.91;99681.48;1639070;85;25819;-82
2021/11/01 21:37:09;;;;;;;66.90;35.58;;;;;;;7.36;74.92;99681.98;1654132;83;25878;-83
2021/11/01 21:39:37;;;;;;;64.37;33.33;;;;;;;7.35;75.01;99683.52;1639943;86;26146;-83
2021/11/01 21:42:05;;;;;;;80.25;36.00;;;;;;;7.32;74.98;99679.88;1668428;85;25847;-83
2021/11/01 21:44:37;;;;;;;77.00;37.70;;;;;;;7.29;75.03;99682.94;1647012;83;28213;-82
2021/11/01 21:47:04;;;;;;;66.28;33.30;;;;;;;7.27;75.15;99675.64;1626715;86;25385;-83
2021/11/01 21:49:32;;;;;;;63.50;32.93;;;;;;;7.23;75.22;99675.70;1698080;83;26885;-82
2021/11/01 21:51:59;;;;;;;70.30;35.15;;;;;;;7.20;75.22;99670.74;1651926;86;26519;-82
2021/11/01 21:54:43;;;;;;;73.72;35.03;;;;;;;7.17;75.39;99667.94;1632697;83;25386;-83
2021/11/01 21:57:12;;;;;;;78.85;39.33;;;;;;;7.13;75.43;99664.00;1674926;82;27403;-83
2021/11/01 22:18:36;;;;;;;63.43;36.13;;;;;;;6.94;75.88;99672.09;1629339;83;26512;-82
2021/11/01 22:23:38;;;;;;;56.83;32.17;;;;;;;6.93;75.89;99672.25;1692133;83;28493;-82